^^
Saratoga-Weather Station Historical Data
Daily Summary for December 19, 2020 Units:  English    Metric   Both
Daily Weekly Monthly Yearly Custom
  High: Low: Average:
Temperature: 55.2 °F 38.7 °F 46.9 °F
Dew Point: 51.4 °F 38.1 °F 44.6 °F
Humidity: 99% 76% 92%
Wind Speed: 6mph 0mph 0.7mph
Wind Gust: 8mph - -
Wind- - ESE
Pressure: 30.1 in 30 in -
Precipitation: 0.01 in    
Historical Graphs
 
 
Tabular Data for December 19, 2020
Time Temperature Dew Point Pressure Wind Wind Speed Wind Gust Humidity Rainfall Rate (Hourly) solar
00:03 40.6 °F 40.1 °F 30.1 in Calm     98% 0 in 0 W/m2
00:08 40.6 °F 40.1 °F 30.1 in Calm     98% 0 in 0 W/m2
00:13 40.5 °F 39.9 °F 30.1 in Calm     98% 0 in 0 W/m2
00:18 40.3 °F 39.7 °F 30.1 in Calm     98% 0 in 0 W/m2
00:23 39.9 °F 39.4 °F 30.1 in Calm     98% 0 in 0 W/m2
00:28 39.7 °F 39.2 °F 30.1 in Calm     98% 0 in 0 W/m2
00:33 39.6 °F 39 °F 30.1 in Calm     98% 0 in 0 W/m2
00:38 39.4 °F 38.8 °F 30.1 in Calm     98% 0 in 0 W/m2
00:43 39.2 °F 38.7 °F 30.1 in Calm     98% 0 in 0 W/m2
00:48 39 °F 38.5 °F 30.1 in Calm     98% 0 in 0 W/m2
00:53 39 °F 38.5 °F 30.1 in Calm     98% 0 in 0 W/m2
00:58 39 °F 38.5 °F 30.1 in Calm     98% 0 in 0 W/m2
01:03 39 °F 38.5 °F 30.1 in Calm     98% 0 in 0 W/m2
01:08 39 °F 38.5 °F 30.1 in Calm     98% 0 in 0 W/m2
01:13 39 °F 38.5 °F 30.1 in Calm     98% 0 in 0 W/m2
01:18 39 °F 38.5 °F 30.1 in Calm     98% 0 in 0 W/m2
01:23 39 °F 38.5 °F 30.1 in Calm     98% 0 in 0 W/m2
01:28 39 °F 38.5 °F 30.1 in Calm     98% 0 in 0 W/m2
01:33 39 °F 38.5 °F 30 in Calm     98% 0 in 0 W/m2
01:38 39 °F 38.5 °F 30 in Calm     98% 0 in 0 W/m2
01:43 39 °F 38.5 °F 30 in Calm     98% 0 in 0 W/m2
01:48 39 °F 38.5 °F 30 in Calm     98% 0 in 0 W/m2
01:53 38.8 °F 38.3 °F 30 in Calm     98% 0 in 0 W/m2
01:58 39 °F 38.5 °F 30 in Calm     98% 0 in 0 W/m2
02:04 39.2 °F 38.7 °F 30 in Calm     98% 0 in 0 W/m2
02:09 39.2 °F 38.7 °F 30 in Calm     98% 0 in 0 W/m2
02:14 39.4 °F 38.8 °F 30 in Calm     98% 0 in 0 W/m2
02:19 39.4 °F 38.8 °F 30 in Calm     98% 0 in 0 W/m2
02:35 39 °F 38.5 °F 30 in Calm     98% 0 in 0 W/m2
02:40 38.8 °F 38.3 °F 30 in Calm     98% 0 in 0 W/m2
02:45 38.8 °F 38.3 °F 30 in Calm     98% 0 in 0 W/m2
03:05 38.7 °F 38.1 °F 30 in Calm     98% 0 in 0 W/m2
03:10 39 °F 38.5 °F 30 in Calm     98% 0 in 0 W/m2
03:15 39.4 °F 38.8 °F 30 in Calm     98% 0 in 0 W/m2
03:20 39.6 °F 39 °F 30 in Calm     98% 0 in 0 W/m2
03:25 39.6 °F 39 °F 30 in Calm     98% 0 in 0 W/m2
03:30 39.7 °F 39.2 °F 30 in Calm     98% 0 in 0 W/m2
03:35 39.7 °F 39.2 °F 30 in Calm     98% 0 in 0 W/m2
03:40 39.9 °F 39.4 °F 30 in Calm     98% 0 in 0 W/m2
03:45 39.9 °F 39.4 °F 30 in Calm     98% 0 in 0 W/m2
03:50 40.1 °F 39.6 °F 30 in Calm     98% 0 in 0 W/m2
03:55 40.1 °F 39.6 °F 30 in Calm     98% 0 in 0 W/m2
04:00 40.5 °F 39.9 °F 30 in Calm     98% 0 in 0 W/m2
04:05 40.5 °F 39.9 °F 30 in Calm     98% 0 in 0 W/m2
04:10 40.5 °F 39.9 °F 30 in Calm     98% 0 in 0 W/m2
04:15 40.6 °F 40.1 °F 30 in Calm     98% 0 in 0 W/m2
04:20 40.6 °F 40.1 °F 30 in Calm     98% 0 in 0 W/m2
04:25 40.6 °F 40.1 °F 30 in Calm     98% 0 in 0 W/m2
04:30 40.6 °F 40.1 °F 30 in Calm     98% 0 in 0 W/m2
04:35 40.8 °F 40.3 °F 30 in Calm     98% 0 in 0 W/m2
04:40 40.8 °F 40.3 °F 30 in Calm     98% 0 in 0 W/m2
04:45 41 °F 40.5 °F 30 in Calm     98% 0 in 0 W/m2
04:50 41 °F 40.5 °F 30 in Calm     98% 0 in 0 W/m2
04:55 41 °F 40.5 °F 30 in Calm     98% 0 in 0 W/m2
05:00 41 °F 40.5 °F 30 in Calm     98% 0 in 0 W/m2
05:05 40.8 °F 40.3 °F 30 in Calm     98% 0 in 0 W/m2
05:10 40.8 °F 40.3 °F 30 in Calm     98% 0 in 0 W/m2
05:15 40.8 °F 40.3 °F 30 in Calm     98% 0 in 0 W/m2
05:20 40.8 °F 40.3 °F 30 in Calm     98% 0 in 0 W/m2
05:25 41 °F 40.5 °F 30 in Calm     98% 0 in 0 W/m2
05:30 41.2 °F 40.6 °F 30 in Calm     98% 0 in 0 W/m2
05:35 41.2 °F 40.6 °F 30 in Calm     98% 0 in 0 W/m2
05:41 41.2 °F 40.6 °F 30 in Calm     98% 0 in 0 W/m2
05:46 41.2 °F 40.6 °F 30 in Calm     98% 0 in 0 W/m2
05:51 41.2 °F 40.6 °F 30 in Calm     98% 0 in 0 W/m2
05:56 41 °F 40.5 °F 30 in Calm     98% 0 in 0 W/m2
06:01 40.8 °F 40.3 °F 30 in Calm     98% 0 in 0 W/m2
06:06 40.6 °F 40.1 °F 30 in Calm     98% 0 in 0 W/m2
06:11 40.5 °F 39.9 °F 30 in Calm     98% 0 in 0 W/m2
06:16 40.5 °F 39.9 °F 30 in Calm     98% 0 in 0 W/m2
06:21 40.5 °F 39.9 °F 30 in Calm     98% 0 in 0 W/m2
06:26 40.5 °F 39.9 °F 30 in Calm     98% 0 in 0 W/m2
06:31 40.6 °F 40.1 °F 30 in Calm     98% 0 in 0 W/m2
06:36 40.6 °F 40.1 °F 30 in Calm     98% 0 in 0 W/m2
06:41 40.6 °F 40.1 °F 30 in Calm     98% 0 in 0 W/m2
06:46 40.6 °F 40.1 °F 30 in Calm     98% 0 in 0 W/m2
06:51 40.6 °F 40.1 °F 30 in Calm     98% 0 in 0 W/m2
06:56 40.5 °F 39.9 °F 30 in Calm     98% 0 in 0 W/m2
07:01 40.5 °F 39.9 °F 30 in Calm     98% 0 in 0 W/m2
07:06 40.6 °F 40.1 °F 30 in Calm     98% 0 in 0 W/m2
07:11 40.6 °F 40.1 °F 30 in Calm     98% 0 in 0 W/m2
07:16 40.6 °F 40.1 °F 30 in Calm     98% 0 in 0 W/m2
07:21 40.6 °F 40.1 °F 30 in Calm     98% 0 in 0 W/m2
07:26 40.6 °F 40.1 °F 30 in Calm     98% 0 in 0 W/m2
07:31 40.6 °F 40.1 °F 30 in Calm     98% 0 in 0 W/m2
07:36 40.5 °F 39.9 °F 30 in Calm     98% 0 in 0 W/m2
07:41 40.5 °F 39.9 °F 30 in Calm     98% 0 in 0 W/m2
07:46 40.6 °F 40.1 °F 30 in Calm     98% 0 in 0 W/m2
07:51 40.8 °F 40.3 °F 30 in Calm     98% 0 in 0 W/m2
07:56 40.8 °F 40.3 °F 30 in Calm     98% 0 in 0 W/m2
08:01 40.8 °F 40.3 °F 30 in Calm     98% 0 in 0 W/m2
08:06 40.8 °F 40.3 °F 30 in West 0.9 mph 1 mph 98% 0 in 0 W/m2
08:11 40.6 °F 40.1 °F 30 in West 0.9 mph 1 mph 98% 0 in 0 W/m2
08:16 40.6 °F 40.1 °F 30 in ENE 0.9 mph 4 mph 98% 0 in 0 W/m2
08:35 42.4 °F 41.9 °F 30 in ENE 2 mph 2 mph 98% 0 in 5 W/m2
08:40 42.4 °F 41.9 °F 30 in Calm   2 mph 98% 0 in 7 W/m2
08:45 42.6 °F 42.1 °F 30 in East 0.9 mph 4 mph 98% 0 in 7 W/m2
09:02 43.2 °F 42.6 °F 30 in ENE 2.9 mph 4 mph 98% 0 in 12 W/m2
09:07 43.5 °F 43 °F 30 in ENE 2 mph 2 mph 98% 0 in 14 W/m2
09:13 43.2 °F 42.6 °F 30 in ESE 0.9 mph 2 mph 98% 0 in 14 W/m2
09:18 43 °F 42.4 °F 30 in ENE 2 mph 2 mph 98% 0 in 16 W/m2
09:38 42.4 °F 41.9 °F 30 in Calm   2 mph 98% 0 in 30 W/m2
09:43 43 °F 42.4 °F 30 in NE 2 mph 3 mph 98% 0 in 46 W/m2
09:48 43.3 °F 42.8 °F 30 in NE 2 mph 2 mph 98% 0 in 53 W/m2
09:53 43.9 °F 43.3 °F 30 in NE 0.9 mph 2 mph 98% 0 in 51 W/m2
10:10 44.8 °F 44.2 °F 30 in Calm   1 mph 98% 0 in 56 W/m2
10:15 45 °F 44.4 °F 30 in East 2 mph 2 mph 98% 0 in 51 W/m2
10:20 45 °F 44.4 °F 30 in East 2 mph 3 mph 98% 0 in 54 W/m2
10:25 45.1 °F 44.6 °F 30 in Calm   1 mph 98% 0 in 51 W/m2
10:30 45.1 °F 44.6 °F 30 in East 0.9 mph 1 mph 98% 0 in 56 W/m2
10:35 45.1 °F 44.6 °F 30 in Calm   1 mph 98% 0 in 47 W/m2
10:40 45.3 °F 44.8 °F 30 in Calm   1 mph 98% 0 in 49 W/m2
10:45 45.3 °F 44.8 °F 30 in Calm   2 mph 98% 0 in 53 W/m2
10:50 45.5 °F 45 °F 30 in Calm   1 mph 98% 0 in 60 W/m2
10:55 45.7 °F 45.1 °F 30 in NNE 0.9 mph 2 mph 98% 0 in 77 W/m2
11:00 45.9 °F 45.3 °F 30 in NE 2 mph 2 mph 98% 0 in 76 W/m2
11:05 46.2 °F 45.7 °F 30 in Calm   2 mph 98% 0 in 83 W/m2
11:10 46.8 °F 46.2 °F 30 in NE 0.9 mph 3 mph 98% 0 in 93 W/m2
11:15 47.1 °F 46.6 °F 30 in Calm   1 mph 98% 0 in 98 W/m2
11:20 47.3 °F 47.1 °F 30 in ENE 4 mph 7 mph 99% 0 in 102 W/m2
11:25 47.7 °F 47.1 °F 30 in ENE 2.9 mph 4 mph 98% 0 in 104 W/m2
11:30 47.8 °F 47.7 °F 30 in NE 2.9 mph 5 mph 99% 0 in 100 W/m2
11:35 48.2 °F 47.7 °F 30 in ENE 2.9 mph 6 mph 98% 0 in 107 W/m2
11:40 48.6 °F 48 °F 30 in North 4 mph 4 mph 98% 0 in 107 W/m2
11:45 48.7 °F 48.2 °F 30 in NNE 2.9 mph 3 mph 98% 0 in 98 W/m2
11:50 49.3 °F 48.7 °F 30 in North 0.9 mph 4 mph 98% 0 in 109 W/m2
11:55 50 °F 49.5 °F 30 in ENE 0.9 mph 6 mph 98% 0 in 95 W/m2
12:00 50.5 °F 50 °F 30 in NNW 0.9 mph 3 mph 98% 0 in 95 W/m2
12:05 51.1 °F 50.5 °F 30 in North 2.9 mph 3 mph 98% 0 in 86 W/m2
12:10 51.6 °F 51.1 °F 30 in ESE 0.9 mph 8 mph 98% 0 in 86 W/m2
12:15 52.3 °F 51.4 °F 30 in WNW 2.9 mph 7 mph 97% 0 in 91 W/m2
12:20 53.1 °F 49.8 °F 30 in ENE 2.9 mph 3 mph 89% 0 in 77 W/m2
12:25 53.2 °F 49.1 °F 30 in ENE 2 mph 5 mph 86% 0 in 65 W/m2
12:30 53.4 °F 48.7 °F 30 in NNW 4 mph 4 mph 84% 0 in 70 W/m2
12:35 53.6 °F 48.6 °F 30 in North 0.9 mph 3 mph 83% 0 in 63 W/m2
12:40 53.8 °F 48.4 °F 30 in NNW 2.9 mph 3 mph 82% 0 in 63 W/m2
12:45 53.8 °F 48 °F 30 in NW 2 mph 4 mph 81% 0 in 72 W/m2
12:50 54 °F 48.2 °F 30 in North 2 mph 3 mph 81% 0 in 60 W/m2
13:10 54 °F 48 °F 30 in SSE 2.9 mph 3 mph 80% 0 in 104 W/m2
13:15 54.1 °F 48 °F 30 in ENE 2.9 mph 4 mph 80% 0 in 111 W/m2
13:20 54.1 °F 48 °F 30 in East 0.9 mph 4 mph 80% 0 in 113 W/m2
13:25 54.3 °F 48.2 °F 30 in NNW 0.9 mph 5 mph 80% 0 in 113 W/m2
13:30 54.3 °F 48.2 °F 30 in ESE 2 mph 3 mph 80% 0 in 118 W/m2
13:35 54.5 °F 48.2 °F 30 in NE 2 mph 4 mph 79% 0 in 123 W/m2
13:40 54.7 °F 48.4 °F 30 in West 2.9 mph 3 mph 79% 0 in 114 W/m2
13:45 54.9 °F 48.2 °F 30 in South 0.9 mph 6 mph 78% 0 in 104 W/m2
13:50 55 °F 48.4 °F 30 in WSW 0.9 mph 6 mph 78% 0 in 105 W/m2
13:55 55 °F 48.4 °F 30 in ENE 2 mph 3 mph 78% 0 in 104 W/m2
14:12 55.2 °F 48.2 °F 30 in NNE 2 mph 4 mph 77% 0 in 88 W/m2
14:17 55.2 °F 48.2 °F 30 in North 2 mph 2 mph 77% 0 in 76 W/m2
14:22 55.2 °F 48.2 °F 30 in Calm   1 mph 77% 0 in 72 W/m2
14:27 55.2 °F 48.2 °F 30 in NE 2 mph 3 mph 77% 0 in 72 W/m2
14:32 55.2 °F 48.2 °F 30 in NE 0.9 mph 4 mph 77% 0 in 69 W/m2
14:37 55.2 °F 48.2 °F 30 in Calm   2 mph 77% 0 in 63 W/m2
14:42 55 °F 48.4 °F 30 in North 0.9 mph 4 mph 78% 0 in 56 W/m2
14:47 55 °F 48.4 °F 30 in ENE 0.9 mph 3 mph 78% 0 in 51 W/m2
14:52 54.9 °F 48.2 °F 30 in NE 0.9 mph 4 mph 78% 0 in 47 W/m2
14:57 54.9 °F 48.2 °F 30 in NE 2 mph 3 mph 78% 0 in 39 W/m2
15:02 54.9 °F 48.2 °F 30 in ENE 0.9 mph 4 mph 78% 0 in 35 W/m2
15:07 54.9 °F 48.2 °F 30 in Calm   2 mph 78% 0 in 40 W/m2
15:12 54.9 °F 48.2 °F 30 in NNE 0.9 mph 2 mph 78% 0 in 49 W/m2
15:17 54.9 °F 48.2 °F 30 in ENE 2.9 mph 3 mph 78% 0 in 47 W/m2
15:22 54.9 °F 48.2 °F 30 in ENE 2.9 mph 5 mph 78% 0 in 49 W/m2
15:27 54.9 °F 48.2 °F 30 in North 2.9 mph 3 mph 78% 0 in 42 W/m2
15:32 54.9 °F 48.2 °F 30 in NNE 2.9 mph 3 mph 78% 0 in 40 W/m2
15:37 55 °F 48 °F 30 in East 4 mph 6 mph 77% 0 in 33 W/m2
15:42 55 °F 48 °F 30 in Calm   2 mph 77% 0 in 30 W/m2
15:47 55 °F 48 °F 30 in ESE 2 mph 5 mph 77% 0 in 28 W/m2
15:52 55 °F 48 °F 30 in NW 2 mph 3 mph 77% 0 in 26 W/m2
15:57 55 °F 48 °F 30 in Calm   2 mph 77% 0 in 25 W/m2
16:02 55.2 °F 48.2 °F 30 in North 0.9 mph 2 mph 77% 0 in 23 W/m2
16:07 55 °F 47.7 °F 30 in Calm   4 mph 76% 0 in 19 W/m2
16:12 55 °F 47.7 °F 30 in NW 4.9 mph 7 mph 76% 0 in 14 W/m2
16:17 55.2 °F 47.8 °F 30 in NNW 6 mph 8 mph 76% 0 in 12 W/m2
16:22 55.2 °F 47.8 °F 30 in Calm   2 mph 76% 0 in 11 W/m2
16:27 55 °F 47.7 °F 30 in ENE 2.9 mph 8 mph 76% 0 in 5 W/m2
16:32 55 °F 47.7 °F 30 in ENE 2 mph 4 mph 76% 0 in 0 W/m2
16:37 55 °F 47.7 °F 30 in ENE 0.9 mph 2 mph 76% 0 in 0 W/m2
16:42 54.9 °F 47.5 °F 30 in NE 0.9 mph 4 mph 76% 0 in 0 W/m2
16:47 54.9 °F 47.8 °F 30 in East 2.9 mph 4 mph 77% 0 in 0 W/m2
16:52 54.5 °F 47.8 °F 30 in NNE 2 mph 4 mph 78% 0 in 0 W/m2
16:57 54.1 °F 47.8 °F 30 in East 0.9 mph 3 mph 79% 0 in 0 W/m2
17:02 54 °F 48 °F 30 in East 0.9 mph 3 mph 80% 0 in 0 W/m2
17:07 53.8 °F 47.8 °F 30 in ENE 0.9 mph 3 mph 80% 0 in 0 W/m2
17:12 53.4 °F 47.7 °F 30 in East 0.9 mph 4 mph 81% 0 in 0 W/m2
17:17 53.4 °F 47.7 °F 30 in ENE 0.9 mph 4 mph 81% 0 in 0 W/m2
17:22 53.2 °F 47.5 °F 30 in East 2 mph 3 mph 81% 0 in 0 W/m2
17:27 53.2 °F 47.8 °F 30 in ENE 2 mph 4 mph 82% 0 in 0 W/m2
17:32 53.1 °F 47.7 °F 30 in East 0.9 mph 2 mph 82% 0 in 0 W/m2
17:37 53.1 °F 47.7 °F 30 in ENE 0.9 mph 2 mph 82% 0 in 0 W/m2
17:42 53.1 °F 47.7 °F 30 in ENE 2.9 mph 3 mph 82% 0 in 0 W/m2
17:47 53.1 °F 47.7 °F 30 in East 0.9 mph 2 mph 82% 0 in 0 W/m2
17:52 53.1 °F 47.7 °F 30 in ENE 0.9 mph 3 mph 82% 0 in 0 W/m2
17:57 52.9 °F 47.5 °F 30 in ENE 0.9 mph 2 mph 82% 0 in 0 W/m2
18:02 52.9 °F 47.8 °F 30 in East 2 mph 2 mph 83% 0 in 0 W/m2
18:07 52.7 °F 48 °F 30 in Calm     84% 0 in 0 W/m2
18:12 52.3 °F 48 °F 30 in East 2 mph 2 mph 85% 0 in 0 W/m2
18:17 52.2 °F 47.8 °F 30 in NNE 0.9 mph 2 mph 85% 0 in 0 W/m2
18:22 52.2 °F 48 °F 30 in ESE 2.9 mph 4 mph 86% 0 in 0 W/m2
18:27 52.2 °F 48 °F 30 in NNW 2.9 mph 3 mph 86% 0 in 0 W/m2
18:33 52.3 °F 48.2 °F 30 in West 0.9 mph 1 mph 86% 0 in 0 W/m2
18:38 52.5 °F 48.2 °F 30 in Calm   2 mph 85% 0 in 0 W/m2
18:43 52.5 °F 48.4 °F 30 in Calm     86% 0 in 0 W/m2
18:48 52.3 °F 48.6 °F 30 in Calm   2 mph 87% 0 in 0 W/m2
18:53 52 °F 48.2 °F 30 in WNW 2 mph 3 mph 87% 0 in 0 W/m2
18:58 52 °F 48.2 °F 30 in Calm   1 mph 87% 0 in 0 W/m2
19:03 51.8 °F 48.4 °F 30 in WNW 0.9 mph 3 mph 88% 0 in 0 W/m2
19:08 51.6 °F 48.2 °F 30 in Calm   1 mph 88% 0 in 0 W/m2
19:13 51.4 °F 48.4 °F 30 in Calm     89% 0 in 0 W/m2
19:18 51.3 °F 48.4 °F 30 in Calm   1 mph 90% 0.01 in 0 W/m2
19:23 51.1 °F 48.2 °F 30 in SW 2 mph 2 mph 90% 0.01 in 0 W/m2
19:28 51.1 °F 48.6 °F 30 in Calm   1 mph 91% 0.01 in 0 W/m2
19:33 51.1 °F 48.6 °F 30 in Calm     91% 0.01 in 0 W/m2
19:38 51.1 °F 48.6 °F 30 in Calm     91% 0.01 in 0 W/m2
19:43 50.9 °F 48.4 °F 30 in Calm     91% 0.01 in 0 W/m2
19:48 50.9 °F 48.4 °F 30 in Calm     91% 0.01 in 0 W/m2
19:53 50.7 °F 48.6 °F 30 in Calm     92% 0.01 in 0 W/m2
19:58 50.7 °F 48.6 °F 30 in Calm     92% 0.01 in 0 W/m2
20:03 50.5 °F 48.4 °F 30 in North 0.9 mph 2 mph 92% 0.01 in 0 W/m2
20:08 50.5 °F 48.4 °F 30 in Calm     92% 0.01 in 0 W/m2
20:13 50.4 °F 48.4 °F 30 in Calm   2 mph 93% 0.01 in 0 W/m2
20:18 50.4 °F 48.2 °F 30 in Calm     92% 0 in 0 W/m2
20:23 50.2 °F 48.2 °F 30 in Calm     93% 0 in 0 W/m2
20:28 50 °F 48 °F 30 in Calm     93% 0 in 0 W/m2
20:33 49.8 °F 47.8 °F 30 in Calm     93% 0 in 0 W/m2
20:38 49.6 °F 47.7 °F 30 in Calm     93% 0 in 0 W/m2
20:43 49.6 °F 48 °F 30 in Calm     94% 0 in 0 W/m2
20:48 49.5 °F 47.8 °F 30 in Calm     94% 0 in 0 W/m2
20:53 49.5 °F 47.8 °F 30 in Calm     94% 0 in 0 W/m2
20:58 49.3 °F 47.7 °F 30 in Calm     94% 0 in 0 W/m2
21:03 49.3 °F 47.7 °F 30 in Calm     94% 0 in 0 W/m2
21:08 49.1 °F 47.5 °F 30 in Calm     94% 0 in 0 W/m2
21:29 48.7 °F 47.3 °F 30 in Calm     95% 0 in 0 W/m2
21:34 48.7 °F 47.3 °F 30 in Calm   1 mph 95% 0 in 0 W/m2
21:39 48.7 °F 47.3 °F 30 in East 2.9 mph 4 mph 95% 0 in 0 W/m2
21:44 48.7 °F 47.3 °F 30 in ENE 2 mph 3 mph 95% 0 in 0 W/m2
21:49 48.9 °F 47.5 °F 30 in ENE 0.9 mph 2 mph 95% 0 in 0 W/m2
21:54 49.1 °F 47.7 °F 30 in Calm     95% 0 in 0 W/m2
21:59 48.9 °F 47.5 °F 30 in Calm     95% 0 in 0 W/m2
22:04 48.7 °F 47.3 °F 30 in Calm   1 mph 95% 0 in 0 W/m2
22:09 48.7 °F 47.3 °F 30 in Calm     95% 0 in 0 W/m2
22:14 48.6 °F 47.1 °F 30 in Calm     95% 0 in 0 W/m2
22:19 48.6 °F 47.1 °F 30 in Calm     95% 0 in 0 W/m2
22:24 48.4 °F 46.9 °F 30 in Calm     95% 0 in 0 W/m2
22:29 48.4 °F 46.9 °F 30 in Calm     95% 0 in 0 W/m2
22:34 48.2 °F 46.8 °F 30 in Calm     95% 0 in 0 W/m2
22:39 48 °F 46.6 °F 30 in Calm     95% 0 in 0 W/m2
22:44 48 °F 46.6 °F 30 in Calm     95% 0 in 0 W/m2
22:49 48 °F 46.6 °F 30 in Calm     95% 0 in 0 W/m2
22:54 48 °F 46.6 °F 30 in Calm     95% 0 in 0 W/m2
22:59 47.8 °F 46.4 °F 30 in Calm     95% 0 in 0 W/m2
23:04 47.8 °F 46.4 °F 30 in Calm     95% 0 in 0 W/m2
23:09 47.8 °F 46.8 °F 30 in Calm     96% 0 in 0 W/m2
23:14 47.8 °F 46.8 °F 30 in ENE 0.9 mph 2 mph 96% 0 in 0 W/m2
23:19 47.8 °F 46.8 °F 30 in Calm     96% 0 in 0 W/m2
23:24 47.8 °F 46.8 °F 30 in Calm   2 mph 96% 0 in 0 W/m2
23:29 47.8 °F 46.8 °F 30 in Calm     96% 0 in 0 W/m2
23:34 47.8 °F 46.8 °F 30 in Calm     96% 0 in 0 W/m2
23:39 47.8 °F 46.8 °F 30 in Calm     96% 0 in 0 W/m2
23:44 47.8 °F 46.8 °F 30 in Calm     96% 0 in 0 W/m2
23:49 48 °F 46.9 °F 30 in ENE 0.9 mph 2 mph 96% 0 in 0 W/m2
23:54 48 °F 46.9 °F 30 in Calm     96% 0 in 0 W/m2
Juneau County Weather
Compliments of Weather Underground - 2 mb